N145AJ PHTO-PHLI
Flight info
| Callsign | N145AJ |
|---|---|
| Flight time | 0h 48m |
| Altitude | 40000 |
| Route | ITO V22 OKALA V16 NAPUA LIH |
| Aircraft | LJ35/M-SGHRWXY/SB1 |
Departure
| Time | 2026-04-26 01:18 |
|---|---|
| Airport | Hilo International Airport (PHTO) |
Arrival
| Time | 2026-04-26 02:06 |
|---|---|
| Airport | Lihue Airport (PHLI) |
| Time | Latitude | Longitude | Altitude | Speed | Heading |
|---|---|---|---|---|---|
| 2026-04-26 00:56 | 19.71918 | -155.05831 | 32 ft | 0 kts | 138° |
| 2026-04-26 00:58 | 19.71918 | -155.05832 | 32 ft | 0 kts | 138° |
| 2026-04-26 01:09 | 19.71919 | -155.05832 | 32 ft | 0 kts | 138° |
| 2026-04-26 01:09 | 19.71913 | -155.05827 | 32 ft | 2 kts | 137° |
| 2026-04-26 01:10 | 19.71892 | -155.05808 | 33 ft | 7 kts | 144° |
| 2026-04-26 01:10 | 19.71879 | -155.05799 | 33 ft | 0 kts | 147° |
| 2026-04-26 01:10 | 19.71874 | -155.05795 | 33 ft | 0 kts | 149° |
| 2026-04-26 01:12 | 19.71872 | -155.05794 | 33 ft | 0 kts | 151° |
| 2026-04-26 01:13 | 19.71865 | -155.05795 | 33 ft | 3 kts | 217° |
| 2026-04-26 01:13 | 19.71803 | -155.05858 | 33 ft | 21 kts | 220° |
| 2026-04-26 01:13 | 19.71681 | -155.05967 | 34 ft | 24 kts | 221° |
| 2026-04-26 01:14 | 19.71552 | -155.06085 | 36 ft | 25 kts | 220° |
| 2026-04-26 01:14 | 19.71417 | -155.06204 | 37 ft | 21 kts | 219° |
| 2026-04-26 01:14 | 19.71327 | -155.06283 | 38 ft | 10 kts | 191° |
| 2026-04-26 01:14 | 19.71315 | -155.06283 | 38 ft | 0 kts | 172° |
| 2026-04-26 01:16 | 19.71312 | -155.06282 | 38 ft | 2 kts | 158° |
| 2026-04-26 01:17 | 19.71285 | -155.06254 | 39 ft | 7 kts | 116° |
| 2026-04-26 01:17 | 19.71310 | -155.06195 | 39 ft | 11 kts | 41° |
| 2026-04-26 01:17 | 19.71376 | -155.06135 | 38 ft | 17 kts | 40° |
| 2026-04-26 01:17 | 19.71635 | -155.05899 | 34 ft | 90 kts | 40° |
| 2026-04-26 01:18 | 19.72300 | -155.05293 | 111 ft | 153 kts | 42° |
| 2026-04-26 01:18 | 19.73134 | -155.04480 | 931 ft | 171 kts | 43° |
| 2026-04-26 01:18 | 19.74080 | -155.03550 | 1875 ft | 199 kts | 39° |
| 2026-04-26 01:18 | 19.75445 | -155.03014 | 2703 ft | 233 kts | 359° |
| 2026-04-26 01:19 | 19.76939 | -155.03733 | 3820 ft | 244 kts | 320° |
| 2026-04-26 01:19 | 19.77989 | -155.05164 | 5145 ft | 250 kts | 306° |
| 2026-04-26 01:19 | 19.79005 | -155.06669 | 6397 ft | 252 kts | 310° |
| 2026-04-26 01:19 | 19.80211 | -155.07994 | 7562 ft | 255 kts | 320° |
| 2026-04-26 01:20 | 19.81629 | -155.09144 | 8691 ft | 259 kts | 324° |
| 2026-04-26 01:20 | 19.83095 | -155.10297 | 9828 ft | 264 kts | 322° |
| 2026-04-26 01:20 | 19.84545 | -155.11524 | 10845 ft | 269 kts | 321° |
| 2026-04-26 01:20 | 19.86012 | -155.12786 | 11841 ft | 274 kts | 321° |
| 2026-04-26 01:21 | 19.87518 | -155.14058 | 12849 ft | 279 kts | 322° |
| 2026-04-26 01:21 | 19.89055 | -155.15349 | 13840 ft | 284 kts | 323° |
| 2026-04-26 01:21 | 19.90616 | -155.16666 | 14722 ft | 288 kts | 322° |
| 2026-04-26 01:21 | 19.92196 | -155.18002 | 15614 ft | 293 kts | 322° |
| 2026-04-26 01:22 | 19.93799 | -155.19358 | 16515 ft | 297 kts | 322° |
| 2026-04-26 01:22 | 19.95426 | -155.20733 | 17423 ft | 301 kts | 322° |
| 2026-04-26 01:22 | 19.97077 | -155.22129 | 18342 ft | 305 kts | 322° |
| 2026-04-26 01:22 | 19.98749 | -155.23543 | 19120 ft | 310 kts | 322° |
| 2026-04-26 01:23 | 20.00421 | -155.24965 | 19893 ft | 314 kts | 321° |
| 2026-04-26 01:23 | 20.01933 | -155.26661 | 20677 ft | 319 kts | 308° |
| 2026-04-26 01:23 | 20.03050 | -155.28714 | 21465 ft | 324 kts | 295° |
| 2026-04-26 01:23 | 20.03793 | -155.30996 | 22197 ft | 329 kts | 288° |
| 2026-04-26 01:24 | 20.04397 | -155.33362 | 22707 ft | 334 kts | 286° |
| 2026-04-26 01:24 | 20.05026 | -155.35756 | 23277 ft | 337 kts | 289° |
| 2026-04-26 01:24 | 20.05786 | -155.38127 | 23802 ft | 340 kts | 291° |
| 2026-04-26 01:24 | 20.06576 | -155.40505 | 24286 ft | 343 kts | 290° |
| 2026-04-26 01:25 | 20.07319 | -155.42919 | 24785 ft | 345 kts | 289° |
| 2026-04-26 01:25 | 20.08050 | -155.45356 | 25274 ft | 347 kts | 290° |
| 2026-04-26 01:25 | 20.08804 | -155.47797 | 25774 ft | 349 kts | 290° |
| 2026-04-26 01:25 | 20.09573 | -155.50251 | 26254 ft | 351 kts | 290° |
| 2026-04-26 01:26 | 20.10340 | -155.52726 | 26732 ft | 353 kts | 290° |
| 2026-04-26 01:26 | 20.11105 | -155.55219 | 27214 ft | 356 kts | 290° |
| 2026-04-26 01:26 | 20.11878 | -155.57728 | 27697 ft | 358 kts | 290° |
| 2026-04-26 01:26 | 20.12657 | -155.60248 | 28190 ft | 360 kts | 290° |
| 2026-04-26 01:27 | 20.13440 | -155.62783 | 28676 ft | 362 kts | 290° |
| 2026-04-26 01:27 | 20.14227 | -155.65339 | 29148 ft | 364 kts | 290° |
| 2026-04-26 01:27 | 20.15019 | -155.67912 | 29622 ft | 367 kts | 290° |
| 2026-04-26 01:27 | 20.15804 | -155.70463 | 30088 ft | 369 kts | 290° |
| 2026-04-26 01:28 | 20.16606 | -155.73070 | 30497 ft | 371 kts | 290° |
| 2026-04-26 01:28 | 20.17408 | -155.75677 | 30941 ft | 371 kts | 289° |
| 2026-04-26 01:28 | 20.18211 | -155.78294 | 31377 ft | 372 kts | 289° |
| 2026-04-26 01:28 | 20.19017 | -155.80914 | 31802 ft | 373 kts | 289° |
| 2026-04-26 01:29 | 20.19826 | -155.83539 | 32210 ft | 374 kts | 290° |
| 2026-04-26 01:29 | 20.20903 | -155.86059 | 32625 ft | 375 kts | 298° |
| 2026-04-26 01:29 | 20.22168 | -155.88505 | 33005 ft | 377 kts | 299° |
| 2026-04-26 01:29 | 20.23436 | -155.90964 | 33378 ft | 379 kts | 298° |
| 2026-04-26 01:30 | 20.24667 | -155.93416 | 33724 ft | 382 kts | 297° |
| 2026-04-26 01:30 | 20.25916 | -155.95914 | 34084 ft | 383 kts | 297° |
| 2026-04-26 01:30 | 20.27198 | -155.98448 | 34389 ft | 385 kts | 297° |
| 2026-04-26 01:30 | 20.28453 | -156.00924 | 34705 ft | 385 kts | 297° |
| 2026-04-26 01:31 | 20.29724 | -156.03442 | 35007 ft | 387 kts | 297° |
| 2026-04-26 01:31 | 20.30994 | -156.05968 | 35307 ft | 388 kts | 297° |
| 2026-04-26 01:31 | 20.32275 | -156.08510 | 35586 ft | 389 kts | 297° |
| 2026-04-26 01:31 | 20.33562 | -156.11060 | 35868 ft | 391 kts | 297° |
| 2026-04-26 01:32 | 20.34847 | -156.13611 | 36157 ft | 391 kts | 297° |
| 2026-04-26 01:32 | 20.36133 | -156.16167 | 36445 ft | 392 kts | 297° |
| 2026-04-26 01:32 | 20.37422 | -156.18731 | 36722 ft | 393 kts | 297° |
| 2026-04-26 01:32 | 20.38714 | -156.21300 | 36994 ft | 394 kts | 297° |
| 2026-04-26 01:33 | 20.40010 | -156.23876 | 37257 ft | 395 kts | 297° |
| 2026-04-26 01:33 | 20.41291 | -156.26426 | 37506 ft | 396 kts | 296° |
| 2026-04-26 01:33 | 20.42590 | -156.29013 | 37755 ft | 396 kts | 296° |
| 2026-04-26 01:33 | 20.43894 | -156.31611 | 37998 ft | 397 kts | 296° |
| 2026-04-26 01:34 | 20.45198 | -156.34211 | 38221 ft | 398 kts | 296° |
| 2026-04-26 01:34 | 20.46506 | -156.36819 | 38453 ft | 399 kts | 296° |
| 2026-04-26 01:34 | 20.47820 | -156.39439 | 38673 ft | 400 kts | 296° |
| 2026-04-26 01:34 | 20.49130 | -156.42055 | 38851 ft | 401 kts | 296° |
| 2026-04-26 01:35 | 20.50449 | -156.44688 | 39009 ft | 402 kts | 296° |
| 2026-04-26 01:35 | 20.51766 | -156.47320 | 39175 ft | 403 kts | 296° |
| 2026-04-26 01:35 | 20.53087 | -156.49960 | 39334 ft | 404 kts | 296° |
| 2026-04-26 01:35 | 20.54409 | -156.52604 | 39486 ft | 405 kts | 296° |
| 2026-04-26 01:36 | 20.55734 | -156.55255 | 39629 ft | 405 kts | 296° |
| 2026-04-26 01:36 | 20.57062 | -156.57915 | 39755 ft | 406 kts | 296° |
| 2026-04-26 01:36 | 20.58394 | -156.60581 | 39908 ft | 407 kts | 296° |
| 2026-04-26 01:37 | 20.61068 | -156.65941 | 40030 ft | 412 kts | 296° |
| 2026-04-26 01:37 | 20.63778 | -156.71377 | 40048 ft | 417 kts | 296° |
| 2026-04-26 01:38 | 20.66516 | -156.76875 | 40067 ft | 420 kts | 296° |
| 2026-04-26 01:38 | 20.69268 | -156.82406 | 40078 ft | 422 kts | 296° |
| 2026-04-26 01:39 | 20.72025 | -156.87954 | 40087 ft | 423 kts | 296° |
| 2026-04-26 01:39 | 20.74769 | -156.93482 | 40089 ft | 424 kts | 296° |
| 2026-04-26 01:40 | 20.77246 | -156.99183 | 40076 ft | 423 kts | 288° |
| 2026-04-26 01:40 | 20.79109 | -157.05145 | 40073 ft | 423 kts | 288° |
| 2026-04-26 01:41 | 20.81057 | -157.11080 | 40064 ft | 423 kts | 288° |
| 2026-04-26 01:41 | 20.82965 | -157.17034 | 40047 ft | 424 kts | 288° |
| 2026-04-26 01:42 | 20.84889 | -157.22990 | 40031 ft | 424 kts | 288° |
| 2026-04-26 01:42 | 20.86805 | -157.28950 | 40016 ft | 424 kts | 288° |
| 2026-04-26 01:43 | 20.88724 | -157.34920 | 40003 ft | 424 kts | 288° |
| 2026-04-26 01:43 | 20.90629 | -157.40858 | 40006 ft | 425 kts | 288° |
| 2026-04-26 01:44 | 20.92543 | -157.46831 | 40006 ft | 425 kts | 288° |
| 2026-04-26 01:44 | 20.94458 | -157.52816 | 40003 ft | 425 kts | 288° |
| 2026-04-26 01:45 | 20.96373 | -157.58804 | 40007 ft | 425 kts | 288° |
| 2026-04-26 01:45 | 20.98288 | -157.64803 | 40010 ft | 426 kts | 288° |
| 2026-04-26 01:46 | 21.00200 | -157.70802 | 40010 ft | 426 kts | 288° |
| 2026-04-26 01:46 | 21.02097 | -157.76761 | 40013 ft | 426 kts | 288° |
| 2026-04-26 01:47 | 21.04007 | -157.82770 | 40017 ft | 426 kts | 288° |
| 2026-04-26 01:47 | 21.05916 | -157.88780 | 40021 ft | 427 kts | 288° |
| 2026-04-26 01:48 | 21.07823 | -157.94797 | 40025 ft | 427 kts | 288° |
| 2026-04-26 01:48 | 21.09726 | -158.00818 | 40030 ft | 427 kts | 288° |
| 2026-04-26 01:49 | 21.11632 | -158.06845 | 40031 ft | 427 kts | 288° |
| 2026-04-26 01:49 | 21.13536 | -158.12878 | 40033 ft | 428 kts | 288° |
| 2026-04-26 01:50 | 21.15439 | -158.18915 | 40035 ft | 428 kts | 289° |
| 2026-04-26 01:50 | 21.17340 | -158.24954 | 40036 ft | 428 kts | 289° |
| 2026-04-26 01:51 | 21.19321 | -158.30924 | 40047 ft | 428 kts | 295° |
| 2026-04-26 01:51 | 21.22408 | -158.36396 | 40045 ft | 430 kts | 302° |
| 2026-04-26 01:52 | 21.25597 | -158.41823 | 40042 ft | 430 kts | 301° |
| 2026-04-26 01:52 | 21.28776 | -158.47269 | 40042 ft | 431 kts | 302° |
| 2026-04-26 01:53 | 21.31966 | -158.52714 | 40034 ft | 431 kts | 301° |
| 2026-04-26 01:53 | 21.35150 | -158.58170 | 40036 ft | 431 kts | 302° |
| 2026-04-26 01:54 | 21.38314 | -158.63588 | 40034 ft | 432 kts | 302° |
| 2026-04-26 01:54 | 21.41516 | -158.69051 | 40034 ft | 432 kts | 302° |
| 2026-04-26 01:55 | 21.44764 | -158.74479 | 40042 ft | 433 kts | 303° |
| 2026-04-26 01:55 | 21.46284 | -158.76980 | 40027 ft | 391 kts | 303° |
| 2026-04-26 01:55 | 21.47686 | -158.79265 | 39127 ft | 352 kts | 303° |
| 2026-04-26 01:55 | 21.49074 | -158.81505 | 36062 ft | 373 kts | 305° |
| 2026-04-26 01:56 | 21.50557 | -158.83870 | 33090 ft | 389 kts | 307° |
| 2026-04-26 01:56 | 21.52080 | -158.86266 | 30722 ft | 385 kts | 308° |
| 2026-04-26 01:56 | 21.53579 | -158.88606 | 28435 ft | 373 kts | 308° |
| 2026-04-26 01:56 | 21.55031 | -158.90853 | 26313 ft | 360 kts | 308° |
| 2026-04-26 01:57 | 21.56443 | -158.93019 | 24344 ft | 348 kts | 308° |
| 2026-04-26 01:57 | 21.57820 | -158.95113 | 22290 ft | 338 kts | 308° |
| 2026-04-26 01:57 | 21.59165 | -158.97136 | 20269 ft | 329 kts | 309° |
| 2026-04-26 01:57 | 21.60472 | -158.99079 | 18420 ft | 321 kts | 308° |
| 2026-04-26 01:58 | 21.61775 | -159.00993 | 16425 ft | 314 kts | 309° |
| 2026-04-26 01:58 | 21.63057 | -159.02852 | 14603 ft | 306 kts | 308° |
| 2026-04-26 01:58 | 21.64320 | -159.04657 | 12774 ft | 298 kts | 308° |
| 2026-04-26 01:58 | 21.65554 | -159.06395 | 11075 ft | 287 kts | 309° |
| 2026-04-26 01:59 | 21.66789 | -159.08108 | 10245 ft | 271 kts | 309° |
| 2026-04-26 01:59 | 21.67939 | -159.09690 | 8327 ft | 271 kts | 310° |
| 2026-04-26 01:59 | 21.68979 | -159.11373 | 6610 ft | 276 kts | 300° |
| 2026-04-26 01:59 | 21.69770 | -159.13313 | 6039 ft | 278 kts | 295° |
| 2026-04-26 02:00 | 21.70530 | -159.15204 | 5453 ft | 275 kts | 297° |
| 2026-04-26 02:00 | 21.71386 | -159.17050 | 4858 ft | 278 kts | 300° |
| 2026-04-26 02:00 | 21.72256 | -159.18883 | 4525 ft | 274 kts | 299° |
| 2026-04-26 02:00 | 21.73092 | -159.20721 | 4263 ft | 273 kts | 298° |
| 2026-04-26 02:01 | 21.73915 | -159.22551 | 4072 ft | 272 kts | 299° |
| 2026-04-26 02:01 | 21.74746 | -159.24377 | 3898 ft | 271 kts | 299° |
| 2026-04-26 02:01 | 21.75571 | -159.26181 | 3791 ft | 268 kts | 299° |
| 2026-04-26 02:01 | 21.76388 | -159.27978 | 3622 ft | 267 kts | 300° |
| 2026-04-26 02:02 | 21.77203 | -159.29767 | 3472 ft | 266 kts | 300° |
| 2026-04-26 02:02 | 21.78204 | -159.31406 | 3200 ft | 261 kts | 315° |
| 2026-04-26 02:02 | 21.79575 | -159.32632 | 2938 ft | 252 kts | 334° |
| 2026-04-26 02:02 | 21.81166 | -159.33360 | 2699 ft | 247 kts | 349° |
| 2026-04-26 02:03 | 21.82846 | -159.33601 | 2403 ft | 242 kts | 4° |
| 2026-04-26 02:03 | 21.84511 | -159.33460 | 2111 ft | 241 kts | 9° |
| 2026-04-26 02:03 | 21.86181 | -159.33363 | 1939 ft | 237 kts | 2° |
| 2026-04-26 02:03 | 21.87765 | -159.33463 | 1790 ft | 221 kts | 0° |
| 2026-04-26 02:04 | 21.89193 | -159.33565 | 1515 ft | 190 kts | 2° |
| 2026-04-26 02:04 | 21.90403 | -159.33590 | 1273 ft | 159 kts | 3° |
| 2026-04-26 02:04 | 21.91404 | -159.33592 | 1079 ft | 127 kts | 5° |
| 2026-04-26 02:04 | 21.92247 | -159.33590 | 913 ft | 118 kts | 5° |
| 2026-04-26 02:05 | 21.93054 | -159.33590 | 675 ft | 118 kts | 4° |
| 2026-04-26 02:05 | 21.93889 | -159.33582 | 481 ft | 121 kts | 2° |
| 2026-04-26 02:05 | 21.94763 | -159.33595 | 439 ft | 125 kts | 5° |
| 2026-04-26 02:05 | 21.95610 | -159.33596 | 284 ft | 118 kts | 7° |
| 2026-04-26 02:06 | 21.96425 | -159.33593 | 123 ft | 115 kts | 5° |
| 2026-04-26 02:06 | 21.97140 | -159.33587 | 92 ft | 79 kts | 360° |
| 2026-04-26 02:06 | 21.97516 | -159.33592 | 94 ft | 35 kts | 359° |
| 2026-04-26 02:06 | 21.97695 | -159.33595 | 95 ft | 20 kts | 347° |
| 2026-04-26 02:07 | 21.97833 | -159.33645 | 96 ft | 22 kts | 335° |
| 2026-04-26 02:07 | 21.97904 | -159.33686 | 95 ft | 0 kts | 330° |
| 2026-04-26 02:08 | 21.97916 | -159.33696 | 95 ft | 7 kts | 316° |
| 2026-04-26 02:09 | 21.97939 | -159.33749 | 97 ft | 9 kts | 274° |
| 2026-04-26 02:09 | 21.97940 | -159.33819 | 100 ft | 10 kts | 270° |
| 2026-04-26 02:09 | 21.97940 | -159.33899 | 106 ft | 11 kts | 270° |
| 2026-04-26 02:09 | 21.97940 | -159.33991 | 111 ft | 14 kts | 263° |
| 2026-04-26 02:10 | 21.97940 | -159.34107 | 114 ft | 18 kts | 270° |
| 2026-04-26 02:10 | 21.97940 | -159.34246 | 118 ft | 19 kts | 270° |
| 2026-04-26 02:10 | 21.97954 | -159.34374 | 120 ft | 17 kts | 303° |
| 2026-04-26 02:10 | 21.98042 | -159.34447 | 119 ft | 16 kts | 357° |
| 2026-04-26 02:11 | 21.98100 | -159.34493 | 118 ft | 0 kts | 315° |